Time;durP1;ratioP1;P1;durP2;ratioP2;P2;SDS_P1;SDS_P2;PMS_P1;PMS_P2;Temp;Humidity;BMP_temperature;BMP_pressure;BME280_temperature;BME280_humidity;BME280_pressure;Samples;Min_cycle;Max_cycle;Signal;HPM_P1;HPM_P2
2019/08/12 00:01:06;;;;;;;12.5;7.3;;;;;;;;;;;;;
2019/08/12 00:03:35;;;;;;;12.3;6.9;;;;;;;;;;;;;
2019/08/12 00:05:54;;;;;;;12.2;7.8;;;;;;;;;;;;;
2019/08/12 00:08:11;;;;;;;16.1;9.2;;;;;;;;;;;;;
2019/08/12 00:10:37;;;;;;;14.9;9.2;;;;;;;;;;;;;
2019/08/12 00:13:02;;;;;;;13.8;9.1;;;;;;;;;;;;;
2019/08/12 00:15:27;;;;;;;12.6;8.2;;;;;;;;;;;;;
2019/08/12 00:17:52;;;;;;;14.6;8.3;;;;;;;;;;;;;
2019/08/12 00:20:18;;;;;;;9.8;7.9;;;;;;;;;;;;;
2019/08/12 00:22:42;;;;;;;12.9;8;;;;;;;;;;;;;
2019/08/12 00:25:08;;;;;;;10.3;7.7;;;;;;;;;;;;;
2019/08/12 00:27:32;;;;;;;8.5;6.6;;;;;;;;;;;;;
2019/08/12 00:29:57;;;;;;;10.3;6.2;;;;;;;;;;;;;
2019/08/12 00:32:23;;;;;;;9.4;6.8;;;;;;;;;;;;;
2019/08/12 00:34:47;;;;;;;8.5;6;;;;;;;;;;;;;
2019/08/12 00:37:13;;;;;;;8.1;5.5;;;;;;;;;;;;;
2019/08/12 00:39:39;;;;;;;9.4;5.8;;;;;;;;;;;;;
2019/08/12 00:42:03;;;;;;;7;5.4;;;;;;;;;;;;;
2019/08/12 00:44:28;;;;;;;7.7;6;;;;;;;;;;;;;
2019/08/12 00:46:53;;;;;;;8.3;6;;;;;;;;;;;;;
2019/08/12 00:49:19;;;;;;;9.4;6.4;;;;;;;;;;;;;
2019/08/12 00:51:43;;;;;;;8.9;6.9;;;;;;;;;;;;;
2019/08/12 00:54:09;;;;;;;9.6;7;;;;;;;;;;;;;
2019/08/12 00:56:33;;;;;;;9.2;7.3;;;;;;;;;;;;;
2019/08/12 00:59:00;;;;;;;11.2;8.6;;;;;;;;;;;;;
2019/08/12 01:01:23;;;;;;;9.6;8.4;;;;;;;;;;;;;
2019/08/12 01:03:49;;;;;;;11.3;9.3;;;;;;;;;;;;;
2019/08/12 01:06:14;;;;;;;11.3;9.2;;;;;;;;;;;;;
2019/08/12 01:08:39;;;;;;;11.6;9.8;;;;;;;;;;;;;
2019/08/12 01:11:04;;;;;;;12.3;8.9;;;;;;;;;;;;;
2019/08/12 01:13:29;;;;;;;10.2;8.2;;;;;;;;;;;;;
2019/08/12 01:15:54;;;;;;;10.6;9;;;;;;;;;;;;;
2019/08/12 01:18:19;;;;;;;11.2;8.9;;;;;;;;;;;;;
2019/08/12 01:20:45;;;;;;;13.9;9.7;;;;;;;;;;;;;
2019/08/12 01:23:09;;;;;;;12.4;9.3;;;;;;;;;;;;;
2019/08/12 01:25:35;;;;;;;12.4;9.3;;;;;;;;;;;;;
2019/08/12 01:28:00;;;;;;;12.8;8.5;;;;;;;;;;;;;
2019/08/12 01:30:25;;;;;;;10.7;7.3;;;;;;;;;;;;;
2019/08/12 01:32:50;;;;;;;11.5;7.7;;;;;;;;;;;;;
2019/08/12 01:35:15;;;;;;;12.6;8.2;;;;;;;;;;;;;
2019/08/12 01:37:40;;;;;;;10.9;7.4;;;;;;;;;;;;;
2019/08/12 01:40:05;;;;;;;12.2;7.4;;;;;;;;;;;;;
2019/08/12 01:42:30;;;;;;;13.3;7.8;;;;;;;;;;;;;
2019/08/12 01:44:55;;;;;;;9.7;6.4;;;;;;;;;;;;;
2019/08/12 01:47:20;;;;;;;9.8;5.5;;;;;;;;;;;;;
2019/08/12 01:49:45;;;;;;;11.7;6;;;;;;;;;;;;;
2019/08/12 01:52:10;;;;;;;10.9;6.8;;;;;;;;;;;;;
2019/08/12 01:54:35;;;;;;;11.1;6.2;;;;;;;;;;;;;
2019/08/12 01:57:01;;;;;;;9.8;6.2;;;;;;;;;;;;;
2019/08/12 01:59:26;;;;;;;9.1;6.3;;;;;;;;;;;;;
2019/08/12 02:01:51;;;;;;;11.2;6;;;;;;;;;;;;;
2019/08/12 02:04:16;;;;;;;9.7;5.5;;;;;;;;;;;;;
2019/08/12 02:06:58;;;;;;;10.5;5.5;;;;;;;;;;;;;
2019/08/12 02:09:25;;;;;;;9;5.1;;;;;;;;;;;;;
2019/08/12 02:11:31;;;;;;;8.2;5.1;;;;;;;;;;;;;
2019/08/12 02:13:56;;;;;;;9.6;5.6;;;;;;;;;;;;;
2019/08/12 02:16:21;;;;;;;8.8;5.4;;;;;;;;;;;;;
2019/08/12 02:18:46;;;;;;;10.9;6;;;;;;;;;;;;;
2019/08/12 02:21:11;;;;;;;9.1;5.7;;;;;;;;;;;;;
2019/08/12 02:23:36;;;;;;;9.3;5.3;;;;;;;;;;;;;
2019/08/12 02:26:01;;;;;;;10.9;6.1;;;;;;;;;;;;;
2019/08/12 02:28:27;;;;;;;9.9;5.4;;;;;;;;;;;;;
2019/08/12 02:30:52;;;;;;;9.1;5.1;;;;;;;;;;;;;
2019/08/12 02:33:17;;;;;;;8.9;5.1;;;;;;;;;;;;;
2019/08/12 02:35:42;;;;;;;10.8;5.4;;;;;;;;;;;;;
2019/08/12 02:38:08;;;;;;;7.8;4.5;;;;;;;;;;;;;
2019/08/12 02:40:32;;;;;;;10.9;5.3;;;;;;;;;;;;;
2019/08/12 02:42:57;;;;;;;8.9;5;;;;;;;;;;;;;
2019/08/12 02:45:22;;;;;;;10.2;5;;;;;;;;;;;;;
2019/08/12 02:47:47;;;;;;;9.8;5.1;;;;;;;;;;;;;
2019/08/12 02:50:13;;;;;;;10.3;5.2;;;;;;;;;;;;;
2019/08/12 02:52:38;;;;;;;13;5.3;;;;;;;;;;;;;
2019/08/12 02:55:03;;;;;;;9.7;5.3;;;;;;;;;;;;;
2019/08/12 02:57:28;;;;;;;10.5;5.3;;;;;;;;;;;;;
2019/08/12 02:59:53;;;;;;;10.6;5.3;;;;;;;;;;;;;
2019/08/12 03:02:18;;;;;;;12.1;5.7;;;;;;;;;;;;;
2019/08/12 03:04:43;;;;;;;10.3;5.2;;;;;;;;;;;;;
2019/08/12 03:07:08;;;;;;;9;5.4;;;;;;;;;;;;;
2019/08/12 03:09:33;;;;;;;8.3;5.1;;;;;;;;;;;;;
2019/08/12 03:11:58;;;;;;;11.1;5.2;;;;;;;;;;;;;
2019/08/12 03:14:23;;;;;;;9.3;4.7;;;;;;;;;;;;;
2019/08/12 03:16:49;;;;;;;9.1;4.9;;;;;;;;;;;;;
2019/08/12 03:19:14;;;;;;;9;5;;;;;;;;;;;;;
2019/08/12 03:21:39;;;;;;;11;5.4;;;;;;;;;;;;;
2019/08/12 03:24:04;;;;;;;9.8;5.4;;;;;;;;;;;;;
2019/08/12 03:26:29;;;;;;;10.5;5.3;;;;;;;;;;;;;
2019/08/12 03:28:54;;;;;;;10.3;5.1;;;;;;;;;;;;;
2019/08/12 03:31:22;;;;;;;9.9;5.4;;;;;;;;;;;;;
2019/08/12 03:33:44;;;;;;;9.6;5.3;;;;;;;;;;;;;
2019/08/12 03:36:09;;;;;;;11.9;5.6;;;;;;;;;;;;;
2019/08/12 03:38:35;;;;;;;9.8;5.9;;;;;;;;;;;;;
2019/08/12 03:41:00;;;;;;;11.4;5.9;;;;;;;;;;;;;
2019/08/12 03:43:25;;;;;;;10.3;6;;;;;;;;;;;;;
2019/08/12 03:45:50;;;;;;;9.6;5.9;;;;;;;;;;;;;
2019/08/12 03:48:15;;;;;;;9.8;5.8;;;;;;;;;;;;;
2019/08/12 03:50:41;;;;;;;10.2;5.1;;;;;;;;;;;;;
2019/08/12 03:53:06;;;;;;;9.5;4.6;;;;;;;;;;;;;
2019/08/12 03:55:31;;;;;;;11.7;4.9;;;;;;;;;;;;;
2019/08/12 03:57:56;;;;;;;8.9;4.1;;;;;;;;;;;;;
2019/08/12 04:02:27;;;;;;;7.8;3.8;;;;;;;16.22;86.16406;962.1675;;;;
2019/08/12 04:04:52;;;;;;;7.5;3.7;;;;;;;16.16;87.67871;962.2406;;;;
2019/08/12 04:07:17;;;;;;;7.7;3.4;;;;;;;16.26;86.76563;962.2406;;;;
2019/08/12 04:09:42;;;;;;;8.3;4.2;;;;;;;16.21;88.73926;962.2001;;;;
2019/08/12 04:12:07;;;;;;;8;4;;;;;;;15.97;87.70117;962.2033;;;;
2019/08/12 04:14:32;;;;;;;7.5;3.9;;;;;;;16.03;87.79395;962.1637;;;;
2019/08/12 04:16:57;;;;;;;9.2;4.3;;;;;;;16.13;90.05176;962.0786;;;;
2019/08/12 04:19:23;;;;;;;7.1;3.9;;;;;;;16.18;88.39551;962.002;;;;
2019/08/12 04:21:48;;;;;;;7.5;4;;;;;;;16.28;89.19629;961.98;;;;
2019/08/12 04:24:13;;;;;;;8;4.1;;;;;;;16.32;90.13672;961.9874;;;;
2019/08/12 04:26:38;;;;;;;7.3;3.8;;;;;;;16.35;87.75195;961.9314;;;;
2019/08/12 04:29:03;;;;;;;8.7;4.2;;;;;;;16.27;88.64551;961.9009;;;;
2019/08/12 04:31:28;;;;;;;7;4.4;;;;;;;16.22;90.21973;961.9496;;;;
2019/08/12 04:33:53;;;;;;;8;4.9;;;;;;;16.28;90.02246;961.9061;;;;
2019/08/12 04:36:18;;;;;;;9.2;4.1;;;;;;;16.4;87.62207;961.9348;;;;
2019/08/12 04:38:43;;;;;;;7.2;4.1;;;;;;;16.48;87.41504;962.0178;;;;
2019/08/12 04:41:08;;;;;;;8.8;4.5;;;;;;;16.62;86.77832;962.0648;;;;
2019/08/12 04:43:33;;;;;;;8.9;4.2;;;;;;;16.45;87.85254;962.1041;;;;
2019/08/12 04:45:59;;;;;;;10.5;4.6;;;;;;;16.09;88.59668;962.1153;;;;
2019/08/12 04:48:24;;;;;;;9.4;4.4;;;;;;;16.01;90.02637;962.1261;;;;
2019/08/12 04:50:49;;;;;;;9.6;4.6;;;;;;;16.12;88.94238;962.2519;;;;
2019/08/12 04:53:14;;;;;;;9.1;4.6;;;;;;;16.08;90.12207;962.1639;;;;
2019/08/12 04:55:39;;;;;;;8.2;4.4;;;;;;;16.08;89.16602;962.1072;;;;
2019/08/12 04:58:05;;;;;;;7.8;4.4;;;;;;;16.13;90.62305;962.0769;;;;
2019/08/12 05:00:30;;;;;;;8.2;4.5;;;;;;;16.28;90.18652;962.0845;;;;
2019/08/12 05:02:55;;;;;;;9.7;5;;;;;;;16.28;90.45605;962.17;;;;
2019/08/12 05:05:20;;;;;;;7.8;4.2;;;;;;;16.39;87.50586;962.245;;;;
2019/08/12 05:07:46;;;;;;;7.1;3.9;;;;;;;16.25;87.28906;962.3114;;;;
2019/08/12 05:10:11;;;;;;;6.8;3.7;;;;;;;16.16;87.37598;962.2859;;;;
2019/08/12 05:12:36;;;;;;;8.2;3.4;;;;;;;16.24;85.6543;962.1682;;;;
2019/08/12 05:15:01;;;;;;;9.7;4;;;;;;;16.14;87.11621;962.0275;;;;
2019/08/12 05:17:26;;;;;;;7.9;3.5;;;;;;;16.3;86.36621;961.9469;;;;
2019/08/12 05:19:51;;;;;;;8.1;3.5;;;;;;;16.48;84.31348;961.902;;;;
2019/08/12 05:22:16;;;;;;;6.9;3.4;;;;;;;16.15;84.17773;961.9428;;;;
2019/08/12 05:24:41;;;;;;;8.7;3.5;;;;;;;16.18;85.74707;961.9116;;;;
2019/08/12 05:27:06;;;;;;;5.8;3.2;;;;;;;16.04;85.22949;961.7036;;;;
2019/08/12 05:29:31;;;;;;;5.6;3.1;;;;;;;16.03;87.02441;961.5547;;;;
2019/08/12 05:31:56;;;;;;;8.3;3.7;;;;;;;16.08;87.12695;961.3425;;;;
2019/08/12 05:34:22;;;;;;;6.8;3.4;;;;;;;16.04;85.62598;961.3155;;;;
2019/08/12 05:37:05;;;;;;;7.9;3.6;;;;;;;16.09;87;961.2808;;;;
2019/08/12 05:39:12;;;;;;;6.7;4;;;;;;;15.84;90.35156;961.2551;;;;
2019/08/12 05:41:37;;;;;;;8.3;4.5;;;;;;;15.74;91.93848;961.3053;;;;
2019/08/12 05:44:02;;;;;;;8.1;4.4;;;;;;;15.63;90.98633;961.4467;;;;
2019/08/12 05:46:29;;;;;;;8.8;4.5;;;;;;;15.62;92.30859;961.5717;;;;
2019/08/12 05:48:53;;;;;;;8.6;4.6;;;;;;;15.42;92.6875;961.6639;;;;
2019/08/12 05:51:18;;;;;;;10;4.7;;;;;;;15.32;93.48145;961.6316;;;;
2019/08/12 05:53:43;;;;;;;7.5;4.1;;;;;;;15.44;91.60938;961.7018;;;;
2019/08/12 05:56:08;;;;;;;8.3;4.5;;;;;;;15.61;93.40332;961.838;;;;
2019/08/12 05:58:33;;;;;;;7.7;3.9;;;;;;;15.63;92.70996;961.8986;;;;
2019/08/12 06:00:59;;;;;;;5.1;3.3;;;;;;;15.49;87.80078;961.8742;;;;
2019/08/12 06:03:24;;;;;;;6.9;3.7;;;;;;;15.61;88.65234;961.9528;;;;
2019/08/12 06:05:49;;;;;;;7.4;3.9;;;;;;;15.74;89.05078;961.9331;;;;
2019/08/12 06:08:15;;;;;;;7.7;4;;;;;;;15.84;90.91113;961.838;;;;
2019/08/12 06:10:40;;;;;;;8.4;4;;;;;;;15.8;91.8125;961.6563;;;;
2019/08/12 06:13:05;;;;;;;7.9;3.8;;;;;;;15.91;90.34375;961.6522;;;;
2019/08/12 06:15:31;;;;;;;6.2;4;;;;;;;15.82;91.02539;961.8438;;;;
2019/08/12 06:17:56;;;;;;;8.9;4.8;;;;;;;15.74;94.52637;961.9783;;;;
2019/08/12 06:20:21;;;;;;;8.6;4.2;;;;;;;15.84;93.91699;962.1691;;;;
2019/08/12 06:22:46;;;;;;;8.2;4.2;;;;;;;15.82;92.45898;962.3008;;;;
2019/08/12 06:25:17;;;;;;;7.5;3.8;;;;;;;15.84;90.8877;962.4995;;;;
2019/08/12 06:27:42;;;;;;;6;3.6;;;;;;;15.98;89.70605;962.5255;;;;
2019/08/12 06:30:07;;;;;;;9;4.2;;;;;;;15.95;89.71191;962.7629;;;;
2019/08/12 06:32:32;;;;;;;9.4;4.1;;;;;;;16.11;90.75684;962.8884;;;;
2019/08/12 06:34:57;;;;;;;10.4;4.6;;;;;;;15.96;91.4248;962.8945;;;;
2019/08/12 06:37:23;;;;;;;8.6;4;;;;;;;15.88;90.12793;963.0511;;;;
2019/08/12 06:39:48;;;;;;;9.2;4;;;;;;;15.98;91.20898;962.907;;;;
2019/08/12 06:42:13;;;;;;;9.8;4.1;;;;;;;15.85;91.15918;962.8614;;;;
2019/08/12 06:44:38;;;;;;;7.8;4.2;;;;;;;15.76;90.74316;962.7728;;;;
2019/08/12 06:47:04;;;;;;;7.3;3.9;;;;;;;15.85;92.3125;962.5901;;;;
2019/08/12 06:49:29;;;;;;;7.2;4.1;;;;;;;15.74;91.56641;962.3892;;;;
2019/08/12 06:51:54;;;;;;;9.3;4.4;;;;;;;15.75;97.50781;962.2733;;;;
2019/08/12 06:54:19;;;;;;;8.9;3.8;;;;;;;15.78;92.54004;962.1797;;;;
2019/08/12 06:56:44;;;;;;;8.3;4.1;;;;;;;15.65;93.11914;961.9087;;;;
2019/08/12 06:59:09;;;;;;;8.6;4.5;;;;;;;15.97;90.55469;962.005;;;;
2019/08/12 07:01:34;;;;;;;10.3;4.5;;;;;;;15.95;93.63867;961.9772;;;;
2019/08/12 07:03:59;;;;;;;7.5;4.3;;;;;;;15.91;94.02539;961.9391;;;;
2019/08/12 07:06:24;;;;;;;7.3;4;;;;;;;16.07;92.21875;961.9099;;;;
2019/08/12 07:08:49;;;;;;;8.2;4;;;;;;;16.06;90.32813;961.7527;;;;
2019/08/12 07:11:15;;;;;;;7.4;3.8;;;;;;;16.07;89.54883;961.7142;;;;
2019/08/12 07:13:40;;;;;;;8.3;4.4;;;;;;;15.92;93.30469;961.6015;;;;
2019/08/12 07:16:05;;;;;;;8.3;3.9;;;;;;;15.84;90.52832;961.408;;;;
2019/08/12 07:18:30;;;;;;;7.5;3.6;;;;;;;15.78;89.08301;961.5526;;;;
2019/08/12 07:20:55;;;;;;;7.2;3.8;;;;;;;15.85;88.80664;961.6094;;;;
2019/08/12 07:23:20;;;;;;;8.5;3.8;;;;;;;15.87;87.81934;961.7344;;;;
2019/08/12 07:25:45;;;;;;;6.1;3.4;;;;;;;15.94;88.03223;961.7034;;;;
2019/08/12 07:28:10;;;;;;;6.9;3.4;;;;;;;15.88;88.2627;961.6867;;;;
2019/08/12 07:30:36;;;;;;;7.8;4.3;;;;;;;15.65;90.35938;961.5661;;;;
2019/08/12 07:33:01;;;;;;;6.7;4.3;;;;;;;15.48;92.18652;961.5828;;;;
2019/08/12 07:35:26;;;;;;;8.3;4.3;;;;;;;15.58;92.20801;961.6536;;;;
2019/08/12 07:37:52;;;;;;;7.7;3.8;;;;;;;15.46;92.22949;961.9662;;;;
2019/08/12 07:40:17;;;;;;;8.5;3.8;;;;;;;15.58;88.92676;962.0636;;;;
2019/08/12 07:42:42;;;;;;;6.4;3.4;;;;;;;15.56;87.01367;962.1442;;;;
2019/08/12 07:45:07;;;;;;;5.8;3.4;;;;;;;15.56;88.3623;962.325;;;;
2019/08/12 07:47:32;;;;;;;7.3;3.6;;;;;;;15.52;89.99414;962.4363;;;;
2019/08/12 07:49:57;;;;;;;7;3.7;;;;;;;15.48;91.31445;962.6358;;;;
2019/08/12 07:52:23;;;;;;;6.7;3.9;;;;;;;15.73;90.80762;962.8672;;;;
2019/08/12 07:54:48;;;;;;;6.9;3.5;;;;;;;15.72;89.29102;962.9289;;;;
2019/08/12 07:57:13;;;;;;;7;3.6;;;;;;;15.48;87.01855;962.722;;;;
2019/08/12 07:59:38;;;;;;;5.7;3.3;;;;;;;15.66;89.76953;962.7073;;;;
2019/08/12 08:02:04;;;;;;;5.9;3.2;;;;;;;15.89;89.76758;962.6627;;;;
2019/08/12 08:04:29;;;;;;;6.5;3.1;;;;;;;15.77;86.13281;962.6186;;;;
2019/08/12 08:07:05;;;;;;;6.3;3.4;;;;;;;15.64;90.39258;962.6939;;;;
2019/08/12 08:09:19;;;;;;;6.5;3.3;;;;;;;15.68;91.74121;962.7349;;;;
2019/08/12 08:11:50;;;;;;;8.4;3.7;;;;;;;15.32;87.33594;962.6154;;;;
2019/08/12 08:14:14;;;;;;;6.2;3.5;;;;;;;15.47;92.33496;962.5916;;;;
2019/08/12 08:16:35;;;;;;;9.2;4.4;;;;;;;15.48;95.19043;962.4222;;;;
2019/08/12 08:19:00;;;;;;;6.6;3.7;;;;;;;15.55;90.89648;962.3576;;;;
2019/08/12 08:21:25;;;;;;;8.9;3.7;;;;;;;15.41;92.99805;962.4492;;;;
2019/08/12 08:23:50;;;;;;;7.4;3.3;;;;;;;15.46;92.13672;962.4409;;;;
2019/08/12 08:26:18;;;;;;;6.7;3;;;;;;;15.41;89.27539;962.2167;;;;
2019/08/12 08:28:41;;;;;;;6.9;3.7;;;;;;;15.58;92.33594;962.1786;;;;
2019/08/12 08:31:06;;;;;;;6.3;3.6;;;;;;;15.78;90.4668;962.5733;;;;
2019/08/12 08:33:31;;;;;;;7.1;4.4;;;;;;;15.6;93.28223;962.6586;;;;
2019/08/12 08:35:56;;;;;;;7.1;3.7;;;;;;;15.49;90.25684;962.6423;;;;
2019/08/12 08:38:21;;;;;;;8.4;3.9;;;;;;;15.5;89.56055;962.94;;;;
2019/08/12 08:40:47;;;;;;;8.7;3.9;;;;;;;15.32;92.65527;963.0613;;;;
2019/08/12 08:43:12;;;;;;;6.5;3.5;;;;;;;15.3;90.29883;962.8689;;;;
2019/08/12 08:45:37;;;;;;;9.3;4.4;;;;;;;15.24;93.65039;962.8431;;;;
2019/08/12 08:48:02;;;;;;;7.2;3.9;;;;;;;15.32;92.58496;962.8215;;;;
2019/08/12 08:50:27;;;;;;;6.3;3.6;;;;;;;15.48;91.47656;962.8879;;;;
2019/08/12 08:52:52;;;;;;;6.1;3.2;;;;;;;15.46;90.70508;963.0881;;;;
2019/08/12 08:55:17;;;;;;;6.5;3.6;;;;;;;15.37;92.68945;963.2675;;;;
2019/08/12 08:57:42;;;;;;;8;4;;;;;;;15.46;92.02051;963.1465;;;;
2019/08/12 09:00:08;;;;;;;6.4;3.6;;;;;;;15.62;92.19238;963.1501;;;;
2019/08/12 09:02:33;;;;;;;6.5;3.8;;;;;;;15.8;91.00879;963.0074;;;;
2019/08/12 09:04:58;;;;;;;8.8;4.3;;;;;;;15.53;94.75977;962.7988;;;;
2019/08/12 09:07:23;;;;;;;7.1;4.3;;;;;;;15.38;94.78418;962.5959;;;;
2019/08/12 09:09:48;;;;;;;9.3;5;;;;;;;15.3;96.4541;962.4016;;;;
2019/08/12 09:12:13;;;;;;;8.2;4.9;;;;;;;15.28;96.4502;962.2676;;;;
2019/08/12 09:14:38;;;;;;;7.3;4.3;;;;;;;15.34;95.15918;962.2859;;;;
2019/08/12 09:17:03;;;;;;;8.3;4.6;;;;;;;15.41;95.58203;962.3045;;;;
2019/08/12 09:19:28;;;;;;;7.9;4.7;;;;;;;15.23;96.01953;962.3406;;;;
2019/08/12 09:21:54;;;;;;;9.6;4.8;;;;;;;15.24;96.5332;962.2897;;;;
2019/08/12 09:24:19;;;;;;;11.5;5.2;;;;;;;15.26;97.31641;962.4139;;;;
2019/08/12 09:26:44;;;;;;;9.5;4.9;;;;;;;15.2;97.72363;962.8741;;;;
2019/08/12 09:29:09;;;;;;;8.6;4.5;;;;;;;15.07;95.82129;962.91;;;;
2019/08/12 09:31:34;;;;;;;8;4.3;;;;;;;15.19;96.4541;962.7975;;;;
2019/08/12 09:33:59;;;;;;;6.6;4.3;;;;;;;14.99;95.66602;962.7192;;;;
2019/08/12 09:36:25;;;;;;;10;5.1;;;;;;;15.04;98.62988;962.6365;;;;
2019/08/12 09:38:49;;;;;;;9.5;5.1;;;;;;;14.9;96.99512;962.4363;;;;
2019/08/12 09:41:14;;;;;;;10.4;5.5;;;;;;;14.86;98.8916;962.3078;;;;
2019/08/12 09:43:39;;;;;;;7.2;4.9;;;;;;;15.17;98.48535;962.2541;;;;
2019/08/12 09:46:05;;;;;;;12.6;6.7;;;;;;;15.09;100;962.3438;;;;
2019/08/12 09:48:29;;;;;;;11;6.3;;;;;;;15.14;100;962.4797;;;;
2019/08/12 09:50:55;;;;;;;10.4;5.7;;;;;;;14.92;98.31055;962.6628;;;;
2019/08/12 09:53:20;;;;;;;8.9;5;;;;;;;15.21;98.75879;962.7346;;;;
2019/08/12 09:55:45;;;;;;;8.5;5.2;;;;;;;15.18;100;962.6744;;;;
2019/08/12 09:58:10;;;;;;;11.6;6.2;;;;;;;15.25;100;962.669;;;;
2019/08/12 10:00:36;;;;;;;13.9;7;;;;;;;15.31;100;962.6767;;;;
2019/08/12 10:03:00;;;;;;;10;6.1;;;;;;;15.39;100;962.6945;;;;
2019/08/12 10:05:25;;;;;;;8.3;5.9;;;;;;;15.42;99.4707;962.6692;;;;
2019/08/12 10:07:50;;;;;;;9.8;6.2;;;;;;;15.37;100;962.5596;;;;
2019/08/12 10:10:16;;;;;;;10.5;6;;;;;;;15.22;100;962.649;;;;
2019/08/12 10:12:41;;;;;;;12;6.2;;;;;;;15.03;100;962.7949;;;;
2019/08/12 10:17:42;;;;;;;11.6;6.5;;;;;;;15.1;100;962.866;;;;
2019/08/12 10:20:08;;;;;;;12.1;6.9;;;;;;;15.18;100;962.8279;;;;
2019/08/12 10:22:32;;;;;;;11.4;6;;;;;;;15.33;100;962.7787;;;;
2019/08/12 10:24:58;;;;;;;9.3;6.1;;;;;;;15.49;99.18652;962.6409;;;;
2019/08/12 10:27:23;;;;;;;10.2;6.4;;;;;;;15.48;100;962.5273;;;;
2019/08/12 10:29:48;;;;;;;10.1;6.2;;;;;;;15.67;97.7002;962.3063;;;;
2019/08/12 10:32:13;;;;;;;11.7;7.2;;;;;;;15.82;100;962.109;;;;
2019/08/12 10:34:38;;;;;;;11.4;6.7;;;;;;;15.9;99.04492;962.0583;;;;
2019/08/12 10:37:03;;;;;;;9.4;5.6;;;;;;;16.12;96.81055;962.0918;;;;
2019/08/12 10:39:28;;;;;;;7.7;4.3;;;;;;;15.89;94.91895;961.9984;;;;
2019/08/12 10:41:53;;;;;;;6.8;4.3;;;;;;;15.82;94.58887;961.9626;;;;
2019/08/12 10:44:18;;;;;;;10.1;5.3;;;;;;;16.02;99.38574;961.9689;;;;
2019/08/12 10:46:44;;;;;;;8.5;5.2;;;;;;;16.03;97.95703;961.9877;;;;
2019/08/12 10:49:09;;;;;;;7.1;4.1;;;;;;;16.01;94.12793;962.0595;;;;
2019/08/12 10:51:34;;;;;;;8.8;5.4;;;;;;;16.04;96.74609;962.0447;;;;
2019/08/12 10:53:59;;;;;;;9.1;4.8;;;;;;;16.09;98.12012;962.1894;;;;
2019/08/12 10:56:32;;;;;;;7.8;5;;;;;;;15.96;93.0332;962.2081;;;;
2019/08/12 10:58:49;;;;;;;7.7;5.4;;;;;;;15.57;95.41895;962.2969;;;;
2019/08/12 11:01:16;;;;;;;8.1;6;;;;;;;15.72;98.35254;962.3167;;;;
2019/08/12 11:03:41;;;;;;;6.3;4.7;;;;;;;15.73;95.29102;962.425;;;;
2019/08/12 11:06:05;;;;;;;9.1;6.4;;;;;;;15.55;98.65137;962.4931;;;;
2019/08/12 11:08:30;;;;;;;8.8;5;;;;;;;15.66;97.93262;962.5503;;;;
2019/08/12 11:10:57;;;;;;;7.6;4.8;;;;;;;15.71;96.94141;962.6528;;;;
2019/08/12 11:13:21;;;;;;;7;4.4;;;;;;;15.64;96.43652;962.666;;;;
2019/08/12 11:15:45;;;;;;;7.8;4.6;;;;;;;15.58;97.09961;962.7495;;;;
2019/08/12 11:18:10;;;;;;;8.7;4.8;;;;;;;15.73;97.98145;962.8278;;;;
2019/08/12 11:20:35;;;;;;;7.4;4.4;;;;;;;15.6;96.8457;962.8861;;;;
2019/08/12 11:23:00;;;;;;;8.1;4.1;;;;;;;15.53;95.41113;962.945;;;;
2019/08/12 11:25:25;;;;;;;6.3;4.4;;;;;;;15.57;99.00488;963.075;;;;
2019/08/12 11:27:50;;;;;;;8.3;4.8;;;;;;;15.47;97.51563;963.0762;;;;
2019/08/12 11:30:19;;;;;;;6;4.5;;;;;;;15.45;95.3125;963.0686;;;;
2019/08/12 11:32:42;;;;;;;6.2;4.4;;;;;;;15.51;96.71094;962.9037;;;;
2019/08/12 11:35:06;;;;;;;6.5;4.8;;;;;;;15.47;97.47168;962.8289;;;;
2019/08/12 11:37:31;;;;;;;9;5.1;;;;;;;15.48;98.13477;962.7573;;;;
2019/08/12 11:39:56;;;;;;;8.9;5.2;;;;;;;15.47;97.77246;962.7057;;;;
2019/08/12 11:42:21;;;;;;;8.6;5.3;;;;;;;15.45;98.29199;962.6192;;;;
2019/08/12 11:44:47;;;;;;;7.4;5.4;;;;;;;15.45;100;962.6447;;;;
2019/08/12 11:47:12;;;;;;;9.4;5.4;;;;;;;15.57;100;962.7644;;;;
2019/08/12 11:49:37;;;;;;;8.8;6;;;;;;;15.5;100;962.7009;;;;
2019/08/12 11:52:02;;;;;;;10.5;6.3;;;;;;;15.53;100;962.6451;;;;
2019/08/12 11:54:27;;;;;;;12.1;7.2;;;;;;;15.52;100;962.6696;;;;
2019/08/12 11:56:52;;;;;;;7.6;5.3;;;;;;;15.6;100;962.6052;;;;
2019/08/12 11:59:18;;;;;;;12;7;;;;;;;15.57;100;962.5146;;;;
2019/08/12 12:01:44;;;;;;;7.5;5.2;;;;;;;15.63;100;962.5707;;;;
2019/08/12 12:04:09;;;;;;;11.4;6.4;;;;;;;15.58;100;962.715;;;;
2019/08/12 12:06:33;;;;;;;11;6.9;;;;;;;15.45;100;962.7811;;;;
2019/08/12 12:08:59;;;;;;;8.4;5.9;;;;;;;15.45;100;962.6726;;;;
2019/08/12 12:11:24;;;;;;;9.1;5.6;;;;;;;15.65;99.89648;962.4732;;;;
2019/08/12 12:13:49;;;;;;;10.9;6.5;;;;;;;15.57;100;962.4136;;;;
2019/08/12 12:16:15;;;;;;;10.6;6.7;;;;;;;15.43;100;962.4458;;;;
2019/08/12 12:18:41;;;;;;;9;5.9;;;;;;;15.53;100;962.4348;;;;
2019/08/12 12:23:30;;;;;;;13.9;7.7;;;;;;;15.33;100;962.3812;;;;
2019/08/12 12:25:55;;;;;;;13.8;8.1;;;;;;;15.29;100;962.4575;;;;
2019/08/12 12:28:20;;;;;;;11.9;7;;;;;;;15.3;100;962.5561;;;;
2019/08/12 12:30:45;;;;;;;18.1;9.2;;;;;;;15.37;100;962.5218;;;;
2019/08/12 12:33:10;;;;;;;11.6;7.5;;;;;;;15.4;100;962.5108;;;;
2019/08/12 12:35:35;;;;;;;9.8;7.2;;;;;;;15.45;100;962.639;;;;
2019/08/12 12:38:01;;;;;;;12.1;8.1;;;;;;;15.33;100;962.8962;;;;
2019/08/12 12:40:45;;;;;;;10.6;6.9;;;;;;;15.47;100;962.9398;;;;
2019/08/12 12:43:10;;;;;;;11.2;7.2;;;;;;;15.52;100;962.8522;;;;
2019/08/12 12:45:34;;;;;;;12.3;8.6;;;;;;;15.57;100;962.8005;;;;
2019/08/12 12:47:59;;;;;;;14.8;9.5;;;;;;;15.49;100;962.6473;;;;
2019/08/12 12:50:25;;;;;;;11.5;8.7;;;;;;;15.62;100;962.4706;;;;
2019/08/12 12:52:50;;;;;;;11.8;7.9;;;;;;;15.61;100;962.366;;;;
2019/08/12 12:55:15;;;;;;;11.5;8.1;;;;;;;15.71;100;962.3381;;;;
2019/08/12 12:57:40;;;;;;;10.6;7.1;;;;;;;15.74;100;962.3029;;;;
2019/08/12 13:00:05;;;;;;;9.8;6.7;;;;;;;15.66;100;962.082;;;;
2019/08/12 13:02:30;;;;;;;9.5;6.2;;;;;;;15.57;100;961.6561;;;;
2019/08/12 13:04:55;;;;;;;10.7;6.6;;;;;;;15.55;100;961.2633;;;;
2019/08/12 13:07:20;;;;;;;11;6.8;;;;;;;15.57;100;960.7607;;;;
2019/08/12 13:09:45;;;;;;;11.1;7.4;;;;;;;15.47;100;960.2251;;;;
2019/08/12 13:12:11;;;;;;;10.8;7.5;;;;;;;15.57;100;960.0821;;;;
2019/08/12 13:14:36;;;;;;;11.7;8.4;;;;;;;15.45;100;960.0836;;;;
2019/08/12 13:17:01;;;;;;;12.9;8.3;;;;;;;15.6;100;960.2267;;;;
2019/08/12 13:19:26;;;;;;;13.1;9;;;;;;;15.6;100;960.6663;;;;
2019/08/12 13:21:51;;;;;;;11;8.4;;;;;;;15.59;100;960.8726;;;;
2019/08/12 13:24:16;;;;;;;10.3;7.6;;;;;;;15.48;100;961.1367;;;;
2019/08/12 13:26:41;;;;;;;10.7;8.1;;;;;;;15.52;100;961.3128;;;;
2019/08/12 13:29:06;;;;;;;10;7.9;;;;;;;15.6;100;961.1091;;;;
2019/08/12 13:31:34;;;;;;;8.3;6.3;;;;;;;15.79;100;961.0767;;;;
2019/08/12 13:33:57;;;;;;;8.1;6;;;;;;;16.35;98.69141;961.0736;;;;
2019/08/12 13:36:23;;;;;;;7.8;6;;;;;;;16.3;96.94141;961.1713;;;;
2019/08/12 13:38:47;;;;;;;7.5;5.4;;;;;;;16.49;97.9541;961.3128;;;;
2019/08/12 13:41:14;;;;;;;6.9;4.9;;;;;;;16.43;97.06445;961.4322;;;;
2019/08/12 13:43:38;;;;;;;7;4.6;;;;;;;16.95;96.35254;961.5525;;;;
2019/08/12 13:46:02;;;;;;;5.5;3.9;;;;;;;16.92;94.99023;961.5698;;;;
2019/08/12 13:48:27;;;;;;;6;4.1;;;;;;;16.9;91.77441;961.5544;;;;
2019/08/12 13:50:52;;;;;;;6.1;3.9;;;;;;;16.99;92.84473;961.5344;;;;
2019/08/12 13:53:17;;;;;;;7.3;5;;;;;;;16.8;96.21387;961.4993;;;;
2019/08/12 13:55:42;;;;;;;6;4.6;;;;;;;16.6;95.28418;961.5061;;;;
2019/08/12 13:58:07;;;;;;;7.3;4.7;;;;;;;16.77;93.21777;961.4336;;;;
2019/08/12 14:00:33;;;;;;;9.7;5.6;;;;;;;16.68;97.14355;961.3569;;;;
2019/08/12 14:02:58;;;;;;;7.5;5.5;;;;;;;16.77;97.9248;961.3422;;;;
2019/08/12 14:05:23;;;;;;;5.5;4.2;;;;;;;16.97;96.51855;961.252;;;;
2019/08/12 14:07:48;;;;;;;7.2;4.6;;;;;;;17.12;96.69141;961.2062;;;;
2019/08/12 14:10:13;;;;;;;7.6;5;;;;;;;16.98;96.39355;961.2354;;;;
2019/08/12 14:12:39;;;;;;;5.1;3.6;;;;;;;17.03;89.19629;961.1769;;;;
2019/08/12 14:15:03;;;;;;;6.4;4.4;;;;;;;16.69;93.94727;961.1782;;;;
2019/08/12 14:17:28;;;;;;;4.6;3.5;;;;;;;16.72;91.84277;961.1553;;;;
2019/08/12 14:19:53;;;;;;;4.6;4.1;;;;;;;16.71;94.91992;961.1306;;;;
2019/08/12 14:22:18;;;;;;;5.4;4.1;;;;;;;16.63;96.06055;961.0922;;;;
2019/08/12 14:24:44;;;;;;;6.2;4.2;;;;;;;16.61;96.19629;961.1028;;;;
2019/08/12 14:27:09;;;;;;;4.7;3.6;;;;;;;16.72;98.23926;961.0435;;;;
2019/08/12 14:29:34;;;;;;;4.6;3.5;;;;;;;16.68;96.09375;960.9964;;;;
2019/08/12 14:31:59;;;;;;;6.6;4;;;;;;;16.71;97.21973;961.0103;;;;
2019/08/12 14:34:24;;;;;;;6;4.3;;;;;;;16.75;96.94922;960.8984;;;;
2019/08/12 14:36:49;;;;;;;6.7;4.6;;;;;;;16.86;98.21289;960.6833;;;;
2019/08/12 14:39:21;;;;;;;5.6;3.8;;;;;;;16.93;96.41699;960.6841;;;;
2019/08/12 14:41:39;;;;;;;4;3.5;;;;;;;16.98;95.80957;960.7125;;;;
2019/08/12 14:44:05;;;;;;;6.7;3.9;;;;;;;16.96;97.02051;960.6675;;;;
2019/08/12 14:46:30;;;;;;;4.7;3.7;;;;;;;17.04;95.81152;960.6316;;;;
2019/08/12 14:48:55;;;;;;;5.7;3.8;;;;;;;16.95;96.17773;960.6484;;;;
2019/08/12 14:51:20;;;;;;;4.4;3.1;;;;;;;17.06;94.30664;960.5212;;;;
2019/08/12 14:53:45;;;;;;;3.7;2.9;;;;;;;17.23;94.14648;960.3409;;;;
2019/08/12 14:56:10;;;;;;;4.5;2.9;;;;;;;17.32;94.1543;960.3272;;;;
2019/08/12 14:58:35;;;;;;;3.3;2.9;;;;;;;17.38;92.6123;960.2469;;;;
2019/08/12 15:01:01;;;;;;;4.7;3.5;;;;;;;17.51;92.46387;960.1619;;;;
2019/08/12 15:03:26;;;;;;;5.6;3.3;;;;;;;17.46;91.23828;960.1456;;;;
2019/08/12 15:05:51;;;;;;;4.4;3.5;;;;;;;17.27;93.83887;960.1758;;;;
2019/08/12 15:08:16;;;;;;;4;2.9;;;;;;;17.46;93.16699;960.158;;;;
2019/08/12 15:10:42;;;;;;;3.5;2.7;;;;;;;17.72;92.0293;960.1355;;;;
2019/08/12 15:13:07;;;;;;;3.1;1.9;;;;;;;17.86;89.07129;960.0912;;;;
2019/08/12 15:15:32;;;;;;;3.4;2.2;;;;;;;17.7;91.6377;960.0911;;;;
2019/08/12 15:17:57;;;;;;;2.7;2.5;;;;;;;17.51;93.4248;960.18;;;;
2019/08/12 15:20:22;;;;;;;2.9;2.4;;;;;;;17.33;92.87012;960.103;;;;
2019/08/12 15:22:47;;;;;;;3.4;2.6;;;;;;;17.39;93.04492;960.0341;;;;
2019/08/12 15:25:15;;;;;;;4.7;2.8;;;;;;;17.28;93.18555;960.0719;;;;
2019/08/12 15:27:37;;;;;;;5.2;3.5;;;;;;;17.22;95.40625;960.0845;;;;
2019/08/12 15:30:03;;;;;;;4.5;3.2;;;;;;;17.13;94.41504;960.2054;;;;
2019/08/12 15:32:28;;;;;;;5.5;3.2;;;;;;;17.15;95.82324;960.2704;;;;
2019/08/12 15:34:53;;;;;;;4.8;3.5;;;;;;;17.17;94.87891;960.2792;;;;
2019/08/12 15:37:19;;;;;;;3.8;2.9;;;;;;;17.26;93.1709;960.2872;;;;
2019/08/12 15:39:44;;;;;;;4.7;3.3;;;;;;;17.17;96.90234;960.2092;;;;